sensor_id;sensor_type;location;lat;lon;timestamp;P1;durP1;ratioP1;P2;durP2;ratioP2
10293;SDS011;5192;50.328;7.610;2024-01-15T00:02:11;16.93;;;8.33;;
10293;SDS011;5192;50.328;7.610;2024-01-15T00:04:40;15.87;;;7.47;;
10293;SDS011;5192;50.328;7.610;2024-01-15T00:07:08;21.60;;;8.90;;
10293;SDS011;5192;50.328;7.610;2024-01-15T00:09:35;14.50;;;7.87;;
10293;SDS011;5192;50.328;7.610;2024-01-15T00:12:04;20.47;;;9.90;;
10293;SDS011;5192;50.328;7.610;2024-01-15T00:14:31;17.07;;;8.30;;
10293;SDS011;5192;50.328;7.610;2024-01-15T00:16:59;19.20;;;9.37;;
10293;SDS011;5192;50.328;7.610;2024-01-15T00:19:27;16.57;;;8.03;;
10293;SDS011;5192;50.328;7.610;2024-01-15T00:22:01;21.40;;;9.53;;
10293;SDS011;5192;50.328;7.610;2024-01-15T00:24:29;12.17;;;5.50;;
10293;SDS011;5192;50.328;7.610;2024-01-15T00:26:56;19.23;;;9.03;;
10293;SDS011;5192;50.328;7.610;2024-01-15T00:29:27;11.40;;;5.70;;
10293;SDS011;5192;50.328;7.610;2024-01-15T00:31:53;19.60;;;9.23;;
10293;SDS011;5192;50.328;7.610;2024-01-15T00:34:19;17.73;;;7.37;;
10293;SDS011;5192;50.328;7.610;2024-01-15T00:36:48;17.67;;;8.47;;
10293;SDS011;5192;50.328;7.610;2024-01-15T00:39:14;17.57;;;7.87;;
10293;SDS011;5192;50.328;7.610;2024-01-15T00:41:43;19.13;;;8.37;;
10293;SDS011;5192;50.328;7.610;2024-01-15T00:44:10;24.30;;;8.47;;
10293;SDS011;5192;50.328;7.610;2024-01-15T00:46:44;14.97;;;6.80;;
10293;SDS011;5192;50.328;7.610;2024-01-15T00:49:13;19.87;;;7.87;;
10293;SDS011;5192;50.328;7.610;2024-01-15T00:51:41;20.57;;;9.27;;
10293;SDS011;5192;50.328;7.610;2024-01-15T00:54:08;19.90;;;8.30;;
10293;SDS011;5192;50.328;7.610;2024-01-15T00:56:36;16.90;;;7.63;;
10293;SDS011;5192;50.328;7.610;2024-01-15T00:59:02;17.00;;;8.20;;
10293;SDS011;5192;50.328;7.610;2024-01-15T01:01:30;18.67;;;8.50;;
10293;SDS011;5192;50.328;7.610;2024-01-15T01:03:56;17.10;;;7.87;;
10293;SDS011;5192;50.328;7.610;2024-01-15T01:06:24;17.90;;;7.97;;
10293;SDS011;5192;50.328;7.610;2024-01-15T01:08:50;17.27;;;8.77;;
10293;SDS011;5192;50.328;7.610;2024-01-15T01:11:19;15.90;;;7.60;;
10293;SDS011;5192;50.328;7.610;2024-01-15T01:13:47;16.53;;;9.07;;
10293;SDS011;5192;50.328;7.610;2024-01-15T01:16:15;18.93;;;7.77;;
10293;SDS011;5192;50.328;7.610;2024-01-15T01:18:44;19.73;;;11.53;;
10293;SDS011;5192;50.328;7.610;2024-01-15T01:21:10;15.90;;;7.77;;
10293;SDS011;5192;50.328;7.610;2024-01-15T01:23:38;17.57;;;7.47;;
10293;SDS011;5192;50.328;7.610;2024-01-15T01:26:05;17.07;;;7.40;;
10293;SDS011;5192;50.328;7.610;2024-01-15T01:28:33;16.83;;;7.83;;
10293;SDS011;5192;50.328;7.610;2024-01-15T01:31:02;18.07;;;8.57;;
10293;SDS011;5192;50.328;7.610;2024-01-15T01:33:30;15.23;;;7.10;;
10293;SDS011;5192;50.328;7.610;2024-01-15T01:35:58;16.97;;;7.37;;
10293;SDS011;5192;50.328;7.610;2024-01-15T01:38:24;19.43;;;9.03;;
10293;SDS011;5192;50.328;7.610;2024-01-15T01:40:52;18.67;;;8.10;;
10293;SDS011;5192;50.328;7.610;2024-01-15T01:43:19;18.20;;;7.87;;
10293;SDS011;5192;50.328;7.610;2024-01-15T01:45:48;20.13;;;8.90;;
10293;SDS011;5192;50.328;7.610;2024-01-15T01:48:15;17.67;;;8.43;;
10293;SDS011;5192;50.328;7.610;2024-01-15T01:50:41;19.63;;;9.40;;
10293;SDS011;5192;50.328;7.610;2024-01-15T01:53:10;20.27;;;8.57;;
10293;SDS011;5192;50.328;7.610;2024-01-15T01:55:39;22.37;;;8.97;;
10293;SDS011;5192;50.328;7.610;2024-01-15T01:58:06;19.10;;;9.10;;
10293;SDS011;5192;50.328;7.610;2024-01-15T02:00:34;21.03;;;10.00;;
10293;SDS011;5192;50.328;7.610;2024-01-15T02:03:03;17.63;;;7.53;;
10293;SDS011;5192;50.328;7.610;2024-01-15T02:05:30;17.07;;;7.80;;
10293;SDS011;5192;50.328;7.610;2024-01-15T02:07:59;19.30;;;7.50;;
10293;SDS011;5192;50.328;7.610;2024-01-15T02:10:25;15.60;;;6.97;;
10293;SDS011;5192;50.328;7.610;2024-01-15T02:12:54;18.83;;;9.03;;
10293;SDS011;5192;50.328;7.610;2024-01-15T02:15:21;16.63;;;7.27;;
10293;SDS011;5192;50.328;7.610;2024-01-15T02:18:01;20.30;;;8.87;;
10293;SDS011;5192;50.328;7.610;2024-01-15T02:20:27;16.33;;;7.10;;
10293;SDS011;5192;50.328;7.610;2024-01-15T02:23:15;20.53;;;8.07;;
10293;SDS011;5192;50.328;7.610;2024-01-15T02:25:41;20.20;;;8.67;;
10293;SDS011;5192;50.328;7.610;2024-01-15T02:28:10;17.63;;;8.13;;
10293;SDS011;5192;50.328;7.610;2024-01-15T02:30:40;19.43;;;8.70;;
10293;SDS011;5192;50.328;7.610;2024-01-15T02:33:11;20.80;;;8.33;;
10293;SDS011;5192;50.328;7.610;2024-01-15T02:35:39;22.77;;;9.00;;
10293;SDS011;5192;50.328;7.610;2024-01-15T02:38:08;19.20;;;8.70;;
10293;SDS011;5192;50.328;7.610;2024-01-15T02:40:35;18.30;;;8.13;;
10293;SDS011;5192;50.328;7.610;2024-01-15T02:43:04;16.73;;;7.67;;
10293;SDS011;5192;50.328;7.610;2024-01-15T02:45:30;17.80;;;8.57;;
10293;SDS011;5192;50.328;7.610;2024-01-15T02:47:56;17.60;;;8.90;;
10293;SDS011;5192;50.328;7.610;2024-01-15T02:50:22;16.03;;;7.47;;
10293;SDS011;5192;50.328;7.610;2024-01-15T02:52:51;18.93;;;8.67;;
10293;SDS011;5192;50.328;7.610;2024-01-15T02:55:19;13.93;;;6.00;;
10293;SDS011;5192;50.328;7.610;2024-01-15T02:57:48;16.70;;;7.97;;
10293;SDS011;5192;50.328;7.610;2024-01-15T03:00:14;20.33;;;9.03;;
10293;SDS011;5192;50.328;7.610;2024-01-15T03:02:44;16.47;;;6.87;;
10293;SDS011;5192;50.328;7.610;2024-01-15T03:05:12;16.20;;;7.23;;
10293;SDS011;5192;50.328;7.610;2024-01-15T03:07:40;19.87;;;8.27;;
10293;SDS011;5192;50.328;7.610;2024-01-15T03:10:08;17.87;;;8.83;;
10293;SDS011;5192;50.328;7.610;2024-01-15T03:12:36;19.37;;;9.33;;
10293;SDS011;5192;50.328;7.610;2024-01-15T03:15:04;20.43;;;8.47;;
10293;SDS011;5192;50.328;7.610;2024-01-15T03:17:32;18.67;;;8.03;;
10293;SDS011;5192;50.328;7.610;2024-01-15T03:20:00;18.83;;;8.47;;
10293;SDS011;5192;50.328;7.610;2024-01-15T03:22:32;21.77;;;11.37;;
10293;SDS011;5192;50.328;7.610;2024-01-15T03:25:00;20.93;;;9.03;;
10293;SDS011;5192;50.328;7.610;2024-01-15T03:27:29;20.00;;;9.40;;
10293;SDS011;5192;50.328;7.610;2024-01-15T03:29:56;18.73;;;9.17;;
10293;SDS011;5192;50.328;7.610;2024-01-15T03:32:25;19.03;;;8.17;;
10293;SDS011;5192;50.328;7.610;2024-01-15T03:34:52;22.43;;;9.40;;
10293;SDS011;5192;50.328;7.610;2024-01-15T03:37:19;20.50;;;9.73;;
10293;SDS011;5192;50.328;7.610;2024-01-15T03:39:45;17.63;;;6.20;;
10293;SDS011;5192;50.328;7.610;2024-01-15T03:42:14;26.37;;;10.23;;
10293;SDS011;5192;50.328;7.610;2024-01-15T03:44:42;23.63;;;9.33;;
10293;SDS011;5192;50.328;7.610;2024-01-15T03:47:09;21.37;;;10.33;;
10293;SDS011;5192;50.328;7.610;2024-01-15T03:49:37;15.63;;;7.77;;
10293;SDS011;5192;50.328;7.610;2024-01-15T03:52:05;21.20;;;11.27;;
10293;SDS011;5192;50.328;7.610;2024-01-15T03:54:33;22.70;;;6.80;;
10293;SDS011;5192;50.328;7.610;2024-01-15T03:57:02;25.53;;;9.63;;
10293;SDS011;5192;50.328;7.610;2024-01-15T03:59:28;23.30;;;11.30;;
10293;SDS011;5192;50.328;7.610;2024-01-15T04:01:56;19.20;;;9.63;;
10293;SDS011;5192;50.328;7.610;2024-01-15T04:04:24;22.13;;;8.97;;
10293;SDS011;5192;50.328;7.610;2024-01-15T04:06:50;21.10;;;8.03;;
10293;SDS011;5192;50.328;7.610;2024-01-15T04:09:18;17.13;;;8.83;;
10293;SDS011;5192;50.328;7.610;2024-01-15T04:11:47;21.00;;;10.33;;
10293;SDS011;5192;50.328;7.610;2024-01-15T04:14:16;20.63;;;8.57;;
10293;SDS011;5192;50.328;7.610;2024-01-15T04:16:45;21.10;;;8.40;;
10293;SDS011;5192;50.328;7.610;2024-01-15T04:19:12;17.23;;;8.57;;
10293;SDS011;5192;50.328;7.610;2024-01-15T04:21:39;21.83;;;9.93;;
10293;SDS011;5192;50.328;7.610;2024-01-15T04:24:09;22.03;;;9.40;;
10293;SDS011;5192;50.328;7.610;2024-01-15T04:26:38;29.57;;;13.23;;
10293;SDS011;5192;50.328;7.610;2024-01-15T04:29:07;21.37;;;10.00;;
10293;SDS011;5192;50.328;7.610;2024-01-15T04:31:33;21.13;;;9.30;;
10293;SDS011;5192;50.328;7.610;2024-01-15T04:34:00;25.00;;;8.80;;
10293;SDS011;5192;50.328;7.610;2024-01-15T04:36:27;22.57;;;10.30;;
10293;SDS011;5192;50.328;7.610;2024-01-15T04:38:56;22.17;;;9.10;;
10293;SDS011;5192;50.328;7.610;2024-01-15T04:41:23;22.27;;;9.47;;
10293;SDS011;5192;50.328;7.610;2024-01-15T04:43:51;22.90;;;10.53;;
10293;SDS011;5192;50.328;7.610;2024-01-15T04:46:20;21.57;;;9.17;;
10293;SDS011;5192;50.328;7.610;2024-01-15T04:48:49;25.03;;;11.17;;
10293;SDS011;5192;50.328;7.610;2024-01-15T04:51:16;23.77;;;8.87;;
10293;SDS011;5192;50.328;7.610;2024-01-15T04:53:42;29.10;;;10.07;;
10293;SDS011;5192;50.328;7.610;2024-01-15T04:56:11;24.33;;;10.90;;
10293;SDS011;5192;50.328;7.610;2024-01-15T04:58:39;20.60;;;9.90;;
10293;SDS011;5192;50.328;7.610;2024-01-15T05:01:07;23.93;;;9.03;;
10293;SDS011;5192;50.328;7.610;2024-01-15T05:03:34;23.13;;;10.70;;
10293;SDS011;5192;50.328;7.610;2024-01-15T05:06:03;28.90;;;10.90;;
10293;SDS011;5192;50.328;7.610;2024-01-15T05:08:30;36.13;;;12.10;;
10293;SDS011;5192;50.328;7.610;2024-01-15T05:10:56;23.83;;;10.43;;
10293;SDS011;5192;50.328;7.610;2024-01-15T05:13:25;24.57;;;11.67;;
10293;SDS011;5192;50.328;7.610;2024-01-15T05:15:54;27.23;;;11.57;;
10293;SDS011;5192;50.328;7.610;2024-01-15T05:18:21;22.47;;;10.30;;
10293;SDS011;5192;50.328;7.610;2024-01-15T05:20:48;30.60;;;13.07;;
10293;SDS011;5192;50.328;7.610;2024-01-15T05:23:18;29.63;;;11.67;;
10293;SDS011;5192;50.328;7.610;2024-01-15T05:25:46;26.50;;;10.20;;
10293;SDS011;5192;50.328;7.610;2024-01-15T05:28:14;26.07;;;10.73;;
10293;SDS011;5192;50.328;7.610;2024-01-15T05:30:41;31.17;;;14.23;;
10293;SDS011;5192;50.328;7.610;2024-01-15T05:33:10;26.80;;;11.87;;
10293;SDS011;5192;50.328;7.610;2024-01-15T05:35:39;25.23;;;13.43;;
10293;SDS011;5192;50.328;7.610;2024-01-15T05:38:05;27.60;;;11.70;;
10293;SDS011;5192;50.328;7.610;2024-01-15T05:40:33;24.43;;;10.87;;
10293;SDS011;5192;50.328;7.610;2024-01-15T05:43:01;25.60;;;11.77;;
10293;SDS011;5192;50.328;7.610;2024-01-15T05:45:30;33.50;;;14.23;;
10293;SDS011;5192;50.328;7.610;2024-01-15T05:47:58;25.80;;;11.33;;
10293;SDS011;5192;50.328;7.610;2024-01-15T05:50:26;27.60;;;11.57;;
10293;SDS011;5192;50.328;7.610;2024-01-15T05:52:53;26.53;;;11.70;;
10293;SDS011;5192;50.328;7.610;2024-01-15T05:55:21;23.97;;;11.37;;
10293;SDS011;5192;50.328;7.610;2024-01-15T05:57:48;24.37;;;11.17;;
10293;SDS011;5192;50.328;7.610;2024-01-15T06:00:16;26.43;;;10.83;;
10293;SDS011;5192;50.328;7.610;2024-01-15T06:02:43;27.10;;;10.83;;
10293;SDS011;5192;50.328;7.610;2024-01-15T06:05:09;28.97;;;13.27;;
10293;SDS011;5192;50.328;7.610;2024-01-15T06:07:37;27.30;;;12.10;;
10293;SDS011;5192;50.328;7.610;2024-01-15T06:10:03;25.93;;;11.93;;
10293;SDS011;5192;50.328;7.610;2024-01-15T06:12:30;34.80;;;11.70;;
10293;SDS011;5192;50.328;7.610;2024-01-15T06:14:57;22.87;;;10.47;;
10293;SDS011;5192;50.328;7.610;2024-01-15T06:17:23;30.40;;;11.33;;
10293;SDS011;5192;50.328;7.610;2024-01-15T06:19:49;29.80;;;10.83;;
10293;SDS011;5192;50.328;7.610;2024-01-15T06:22:15;28.83;;;13.23;;
10293;SDS011;5192;50.328;7.610;2024-01-15T06:24:41;21.77;;;11.13;;
10293;SDS011;5192;50.328;7.610;2024-01-15T06:27:09;30.00;;;11.93;;
10293;SDS011;5192;50.328;7.610;2024-01-15T06:29:37;26.87;;;10.97;;
10293;SDS011;5192;50.328;7.610;2024-01-15T06:32:05;22.87;;;9.67;;
10293;SDS011;5192;50.328;7.610;2024-01-15T06:34:34;22.93;;;10.17;;
10293;SDS011;5192;50.328;7.610;2024-01-15T06:37:01;20.67;;;9.83;;
10293;SDS011;5192;50.328;7.610;2024-01-15T06:39:29;28.17;;;10.80;;
10293;SDS011;5192;50.328;7.610;2024-01-15T06:41:56;22.57;;;11.20;;
10293;SDS011;5192;50.328;7.610;2024-01-15T06:44:24;26.87;;;11.10;;
10293;SDS011;5192;50.328;7.610;2024-01-15T06:46:51;26.97;;;11.20;;
10293;SDS011;5192;50.328;7.610;2024-01-15T06:49:26;23.13;;;10.33;;
10293;SDS011;5192;50.328;7.610;2024-01-15T06:51:54;25.30;;;10.23;;
10293;SDS011;5192;50.328;7.610;2024-01-15T06:54:20;22.33;;;9.97;;
10293;SDS011;5192;50.328;7.610;2024-01-15T06:56:48;24.17;;;11.27;;
10293;SDS011;5192;50.328;7.610;2024-01-15T06:59:15;24.03;;;10.67;;
10293;SDS011;5192;50.328;7.610;2024-01-15T07:01:41;25.13;;;12.37;;
10293;SDS011;5192;50.328;7.610;2024-01-15T07:04:10;24.33;;;10.70;;
10293;SDS011;5192;50.328;7.610;2024-01-15T07:06:39;24.73;;;10.30;;
10293;SDS011;5192;50.328;7.610;2024-01-15T07:09:07;26.30;;;11.57;;
10293;SDS011;5192;50.328;7.610;2024-01-15T07:11:35;22.53;;;10.90;;
10293;SDS011;5192;50.328;7.610;2024-01-15T07:14:03;24.07;;;10.90;;
10293;SDS011;5192;50.328;7.610;2024-01-15T07:16:32;23.50;;;11.03;;
10293;SDS011;5192;50.328;7.610;2024-01-15T07:19:00;26.93;;;11.47;;
10293;SDS011;5192;50.328;7.610;2024-01-15T07:21:28;25.80;;;10.70;;
10293;SDS011;5192;50.328;7.610;2024-01-15T07:23:56;24.17;;;10.77;;
10293;SDS011;5192;50.328;7.610;2024-01-15T07:26:24;24.83;;;10.80;;
10293;SDS011;5192;50.328;7.610;2024-01-15T07:28:52;26.60;;;11.17;;
10293;SDS011;5192;50.328;7.610;2024-01-15T07:31:21;23.20;;;10.27;;
10293;SDS011;5192;50.328;7.610;2024-01-15T07:33:47;25.00;;;11.43;;
10293;SDS011;5192;50.328;7.610;2024-01-15T07:36:14;26.10;;;11.40;;
10293;SDS011;5192;50.328;7.610;2024-01-15T07:38:41;23.37;;;10.27;;
10293;SDS011;5192;50.328;7.610;2024-01-15T07:41:10;21.30;;;10.27;;
10293;SDS011;5192;50.328;7.610;2024-01-15T07:43:38;22.23;;;10.47;;
10293;SDS011;5192;50.328;7.610;2024-01-15T07:46:05;23.70;;;9.20;;
10293;SDS011;5192;50.328;7.610;2024-01-15T07:48:36;22.90;;;10.87;;
10293;SDS011;5192;50.328;7.610;2024-01-15T07:51:03;20.43;;;10.33;;
10293;SDS011;5192;50.328;7.610;2024-01-15T07:53:31;24.93;;;11.97;;
10293;SDS011;5192;50.328;7.610;2024-01-15T07:55:59;21.50;;;9.97;;
10293;SDS011;5192;50.328;7.610;2024-01-15T07:58:27;20.53;;;9.80;;
10293;SDS011;5192;50.328;7.610;2024-01-15T08:00:56;25.90;;;12.57;;
10293;SDS011;5192;50.328;7.610;2024-01-15T08:03:22;23.60;;;10.90;;
10293;SDS011;5192;50.328;7.610;2024-01-15T08:05:50;13.77;;;7.53;;
10293;SDS011;5192;50.328;7.610;2024-01-15T08:08:20;18.80;;;10.40;;
10293;SDS011;5192;50.328;7.610;2024-01-15T08:10:47;22.47;;;11.30;;
10293;SDS011;5192;50.328;7.610;2024-01-15T08:13:15;25.17;;;10.77;;
10293;SDS011;5192;50.328;7.610;2024-01-15T08:15:44;21.30;;;10.50;;
10293;SDS011;5192;50.328;7.610;2024-01-15T08:18:11;19.97;;;10.53;;
10293;SDS011;5192;50.328;7.610;2024-01-15T08:20:39;21.13;;;11.13;;
10293;SDS011;5192;50.328;7.610;2024-01-15T08:23:07;19.10;;;10.03;;
10293;SDS011;5192;50.328;7.610;2024-01-15T08:25:36;23.73;;;10.97;;
10293;SDS011;5192;50.328;7.610;2024-01-15T08:28:04;23.87;;;10.90;;
10293;SDS011;5192;50.328;7.610;2024-01-15T08:30:32;21.60;;;11.03;;
10293;SDS011;5192;50.328;7.610;2024-01-15T08:32:58;20.23;;;9.87;;
10293;SDS011;5192;50.328;7.610;2024-01-15T08:35:26;20.97;;;10.53;;
10293;SDS011;5192;50.328;7.610;2024-01-15T08:37:55;22.53;;;11.00;;
10293;SDS011;5192;50.328;7.610;2024-01-15T08:40:25;15.90;;;6.53;;
10293;SDS011;5192;50.328;7.610;2024-01-15T08:42:51;13.97;;;8.00;;
10293;SDS011;5192;50.328;7.610;2024-01-15T08:45:19;19.13;;;9.27;;
10293;SDS011;5192;50.328;7.610;2024-01-15T08:47:48;17.97;;;9.60;;
10293;SDS011;5192;50.328;7.610;2024-01-15T08:50:20;18.63;;;10.10;;
10293;SDS011;5192;50.328;7.610;2024-01-15T08:52:46;19.80;;;9.77;;
10293;SDS011;5192;50.328;7.610;2024-01-15T08:55:13;23.60;;;10.43;;
10293;SDS011;5192;50.328;7.610;2024-01-15T08:57:40;18.37;;;9.00;;
10293;SDS011;5192;50.328;7.610;2024-01-15T09:00:12;17.20;;;8.73;;
10293;SDS011;5192;50.328;7.610;2024-01-15T09:02:39;16.97;;;8.53;;
10293;SDS011;5192;50.328;7.610;2024-01-15T09:05:07;16.73;;;9.63;;
10293;SDS011;5192;50.328;7.610;2024-01-15T09:07:39;15.50;;;8.50;;
10293;SDS011;5192;50.328;7.610;2024-01-15T09:10:08;14.53;;;7.67;;
10293;SDS011;5192;50.328;7.610;2024-01-15T09:12:35;16.60;;;8.37;;
10293;SDS011;5192;50.328;7.610;2024-01-15T09:15:04;18.03;;;8.30;;
10293;SDS011;5192;50.328;7.610;2024-01-15T09:17:32;16.07;;;8.50;;
10293;SDS011;5192;50.328;7.610;2024-01-15T09:20:02;17.37;;;9.20;;
10293;SDS011;5192;50.328;7.610;2024-01-15T09:22:34;17.53;;;9.90;;
10293;SDS011;5192;50.328;7.610;2024-01-15T09:25:03;14.53;;;7.33;;
10293;SDS011;5192;50.328;7.610;2024-01-15T09:27:30;14.27;;;9.37;;
10293;SDS011;5192;50.328;7.610;2024-01-15T09:29:59;13.40;;;7.73;;
10293;SDS011;5192;50.328;7.610;2024-01-15T09:32:28;13.07;;;7.63;;
10293;SDS011;5192;50.328;7.610;2024-01-15T09:34:56;13.37;;;8.13;;
10293;SDS011;5192;50.328;7.610;2024-01-15T09:37:24;14.57;;;7.87;;
10293;SDS011;5192;50.328;7.610;2024-01-15T09:39:52;14.50;;;8.00;;
10293;SDS011;5192;50.328;7.610;2024-01-15T09:42:23;14.60;;;7.57;;
10293;SDS011;5192;50.328;7.610;2024-01-15T09:44:54;15.17;;;8.60;;
10293;SDS011;5192;50.328;7.610;2024-01-15T09:47:20;13.87;;;8.50;;
10293;SDS011;5192;50.328;7.610;2024-01-15T09:49:47;14.30;;;7.23;;
10293;SDS011;5192;50.328;7.610;2024-01-15T09:52:16;14.60;;;8.53;;
10293;SDS011;5192;50.328;7.610;2024-01-15T09:54:48;14.73;;;8.43;;
10293;SDS011;5192;50.328;7.610;2024-01-15T09:57:16;15.30;;;8.03;;
10293;SDS011;5192;50.328;7.610;2024-01-15T09:59:44;15.40;;;8.67;;
10293;SDS011;5192;50.328;7.610;2024-01-15T10:02:13;14.30;;;7.83;;
10293;SDS011;5192;50.328;7.610;2024-01-15T10:04:43;16.20;;;8.17;;
10293;SDS011;5192;50.328;7.610;2024-01-15T10:07:14;13.17;;;7.63;;
10293;SDS011;5192;50.328;7.610;2024-01-15T10:09:45;13.87;;;7.53;;
10293;SDS011;5192;50.328;7.610;2024-01-15T10:12:15;15.13;;;7.77;;
10293;SDS011;5192;50.328;7.610;2024-01-15T10:14:44;15.43;;;8.03;;
10293;SDS011;5192;50.328;7.610;2024-01-15T10:17:12;13.07;;;6.97;;
10293;SDS011;5192;50.328;7.610;2024-01-15T10:19:47;15.00;;;7.83;;
10293;SDS011;5192;50.328;7.610;2024-01-15T10:22:15;14.67;;;7.83;;
10293;SDS011;5192;50.328;7.610;2024-01-15T10:24:46;13.27;;;7.60;;
10293;SDS011;5192;50.328;7.610;2024-01-15T10:27:13;14.37;;;7.67;;
10293;SDS011;5192;50.328;7.610;2024-01-15T10:29:41;15.83;;;7.90;;
10293;SDS011;5192;50.328;7.610;2024-01-15T10:32:10;14.37;;;7.87;;
10293;SDS011;5192;50.328;7.610;2024-01-15T10:34:41;15.40;;;8.13;;
10293;SDS011;5192;50.328;7.610;2024-01-15T10:37:09;13.10;;;7.23;;
10293;SDS011;5192;50.328;7.610;2024-01-15T10:39:37;15.63;;;7.83;;
10293;SDS011;5192;50.328;7.610;2024-01-15T10:42:05;13.43;;;7.90;;
10293;SDS011;5192;50.328;7.610;2024-01-15T10:44:32;14.97;;;8.37;;
10293;SDS011;5192;50.328;7.610;2024-01-15T10:47:01;14.40;;;7.53;;
10293;SDS011;5192;50.328;7.610;2024-01-15T10:49:29;14.63;;;7.90;;
10293;SDS011;5192;50.328;7.610;2024-01-15T10:51:56;15.43;;;7.80;;
10293;SDS011;5192;50.328;7.610;2024-01-15T10:54:23;14.20;;;8.50;;
10293;SDS011;5192;50.328;7.610;2024-01-15T10:56:58;14.77;;;8.00;;
10293;SDS011;5192;50.328;7.610;2024-01-15T10:59:26;11.80;;;6.57;;
10293;SDS011;5192;50.328;7.610;2024-01-15T11:01:58;12.70;;;7.00;;
10293;SDS011;5192;50.328;7.610;2024-01-15T11:04:25;11.77;;;7.03;;
10293;SDS011;5192;50.328;7.610;2024-01-15T11:06:55;13.83;;;8.03;;
10293;SDS011;5192;50.328;7.610;2024-01-15T11:09:25;14.00;;;7.60;;
10293;SDS011;5192;50.328;7.610;2024-01-15T11:12:06;13.07;;;7.07;;
10293;SDS011;5192;50.328;7.610;2024-01-15T11:14:39;11.50;;;7.50;;
10293;SDS011;5192;50.328;7.610;2024-01-15T11:17:09;11.57;;;6.63;;
10293;SDS011;5192;50.328;7.610;2024-01-15T11:19:36;12.90;;;7.70;;
10293;SDS011;5192;50.328;7.610;2024-01-15T11:22:50;11.63;;;6.97;;
10293;SDS011;5192;50.328;7.610;2024-01-15T11:25:35;9.77;;;5.17;;
10293;SDS011;5192;50.328;7.610;2024-01-15T11:27:57;11.73;;;6.67;;
10293;SDS011;5192;50.328;7.610;2024-01-15T11:30:24;9.50;;;6.10;;
10293;SDS011;5192;50.328;7.610;2024-01-15T11:32:53;10.43;;;6.43;;
10293;SDS011;5192;50.328;7.610;2024-01-15T11:35:21;13.40;;;7.03;;
10293;SDS011;5192;50.328;7.610;2024-01-15T11:40:23;11.73;;;6.90;;
10293;SDS011;5192;50.328;7.610;2024-01-15T11:42:51;14.00;;;7.93;;
10293;SDS011;5192;50.328;7.610;2024-01-15T11:45:21;11.53;;;7.13;;
10293;SDS011;5192;50.328;7.610;2024-01-15T11:50:34;10.87;;;6.90;;
10293;SDS011;5192;50.328;7.610;2024-01-15T11:53:02;13.20;;;6.63;;
10293;SDS011;5192;50.328;7.610;2024-01-15T11:55:39;11.83;;;7.67;;
10293;SDS011;5192;50.328;7.610;2024-01-15T11:58:14;12.47;;;6.47;;
10293;SDS011;5192;50.328;7.610;2024-01-15T12:00:47;12.37;;;6.70;;
10293;SDS011;5192;50.328;7.610;2024-01-15T12:03:24;12.00;;;6.07;;
10293;SDS011;5192;50.328;7.610;2024-01-15T12:05:55;8.83;;;5.77;;
10293;SDS011;5192;50.328;7.610;2024-01-15T12:08:24;8.97;;;5.60;;
10293;SDS011;5192;50.328;7.610;2024-01-15T12:10:53;8.57;;;5.60;;
10293;SDS011;5192;50.328;7.610;2024-01-15T12:13:26;9.70;;;5.97;;
10293;SDS011;5192;50.328;7.610;2024-01-15T12:15:54;11.77;;;6.87;;
10293;SDS011;5192;50.328;7.610;2024-01-15T12:18:20;10.33;;;5.20;;
10293;SDS011;5192;50.328;7.610;2024-01-15T12:20:48;10.27;;;5.53;;
10293;SDS011;5192;50.328;7.610;2024-01-15T12:23:14;10.30;;;6.40;;
10293;SDS011;5192;50.328;7.610;2024-01-15T12:25:43;9.07;;;5.23;;
10293;SDS011;5192;50.328;7.610;2024-01-15T12:28:11;10.90;;;6.00;;
10293;SDS011;5192;50.328;7.610;2024-01-15T12:30:39;11.37;;;6.70;;
10293;SDS011;5192;50.328;7.610;2024-01-15T12:33:05;15.40;;;6.77;;
10293;SDS011;5192;50.328;7.610;2024-01-15T12:35:36;12.77;;;6.70;;
10293;SDS011;5192;50.328;7.610;2024-01-15T12:38:05;11.60;;;6.27;;
10293;SDS011;5192;50.328;7.610;2024-01-15T12:40:33;12.30;;;6.90;;
10293;SDS011;5192;50.328;7.610;2024-01-15T12:42:59;11.37;;;6.43;;
10293;SDS011;5192;50.328;7.610;2024-01-15T12:45:26;11.20;;;6.27;;
10293;SDS011;5192;50.328;7.610;2024-01-15T12:47:53;12.60;;;6.90;;
10293;SDS011;5192;50.328;7.610;2024-01-15T12:50:23;10.47;;;7.07;;
10293;SDS011;5192;50.328;7.610;2024-01-15T12:52:51;11.13;;;6.00;;
10293;SDS011;5192;50.328;7.610;2024-01-15T12:55:17;9.80;;;5.30;;
10293;SDS011;5192;50.328;7.610;2024-01-15T12:57:44;6.80;;;4.70;;
10293;SDS011;5192;50.328;7.610;2024-01-15T13:00:10;10.23;;;5.17;;
10293;SDS011;5192;50.328;7.610;2024-01-15T13:02:39;9.20;;;5.17;;
10293;SDS011;5192;50.328;7.610;2024-01-15T13:05:11;8.10;;;4.90;;
10293;SDS011;5192;50.328;7.610;2024-01-15T13:07:42;9.10;;;4.57;;
10293;SDS011;5192;50.328;7.610;2024-01-15T13:10:11;7.23;;;4.67;;
10293;SDS011;5192;50.328;7.610;2024-01-15T13:12:37;7.10;;;4.27;;
10293;SDS011;5192;50.328;7.610;2024-01-15T13:15:04;5.90;;;4.10;;
10293;SDS011;5192;50.328;7.610;2024-01-15T13:17:40;6.73;;;4.40;;
10293;SDS011;5192;50.328;7.610;2024-01-15T13:20:07;6.83;;;4.27;;
10293;SDS011;5192;50.328;7.610;2024-01-15T13:22:37;6.53;;;4.30;;
10293;SDS011;5192;50.328;7.610;2024-01-15T13:25:15;7.77;;;4.10;;
10293;SDS011;5192;50.328;7.610;2024-01-15T13:27:43;6.53;;;4.23;;
10293;SDS011;5192;50.328;7.610;2024-01-15T13:30:13;8.33;;;4.20;;
10293;SDS011;5192;50.328;7.610;2024-01-15T13:32:42;7.33;;;3.50;;
10293;SDS011;5192;50.328;7.610;2024-01-15T13:35:09;7.23;;;3.07;;
10293;SDS011;5192;50.328;7.610;2024-01-15T13:37:40;6.50;;;3.73;;
10293;SDS011;5192;50.328;7.610;2024-01-15T13:40:10;5.83;;;3.60;;
10293;SDS011;5192;50.328;7.610;2024-01-15T13:42:42;11.23;;;3.70;;
10293;SDS011;5192;50.328;7.610;2024-01-15T13:45:18;5.13;;;3.20;;
10293;SDS011;5192;50.328;7.610;2024-01-15T13:47:47;6.97;;;3.00;;
10293;SDS011;5192;50.328;7.610;2024-01-15T13:50:13;5.20;;;2.50;;
10293;SDS011;5192;50.328;7.610;2024-01-15T13:52:42;3.27;;;1.67;;
10293;SDS011;5192;50.328;7.610;2024-01-15T13:55:10;3.37;;;2.03;;
10293;SDS011;5192;50.328;7.610;2024-01-15T13:57:38;3.47;;;1.97;;
10293;SDS011;5192;50.328;7.610;2024-01-15T14:00:05;5.77;;;2.40;;
10293;SDS011;5192;50.328;7.610;2024-01-15T14:02:37;5.50;;;2.07;;
10293;SDS011;5192;50.328;7.610;2024-01-15T14:05:06;4.10;;;2.40;;
10293;SDS011;5192;50.328;7.610;2024-01-15T14:07:35;2.90;;;1.97;;
10293;SDS011;5192;50.328;7.610;2024-01-15T14:10:03;3.57;;;1.80;;
10293;SDS011;5192;50.328;7.610;2024-01-15T14:12:31;4.17;;;1.93;;
10293;SDS011;5192;50.328;7.610;2024-01-15T14:14:58;4.57;;;1.60;;
10293;SDS011;5192;50.328;7.610;2024-01-15T14:17:27;2.90;;;1.53;;
10293;SDS011;5192;50.328;7.610;2024-01-15T14:19:53;7.70;;;2.00;;
10293;SDS011;5192;50.328;7.610;2024-01-15T14:22:20;4.07;;;1.63;;
10293;SDS011;5192;50.328;7.610;2024-01-15T14:24:46;4.97;;;1.80;;
10293;SDS011;5192;50.328;7.610;2024-01-15T14:27:13;2.80;;;1.30;;
10293;SDS011;5192;50.328;7.610;2024-01-15T14:29:41;3.90;;;1.57;;
10293;SDS011;5192;50.328;7.610;2024-01-15T14:32:08;3.90;;;1.27;;
10293;SDS011;5192;50.328;7.610;2024-01-15T14:34:37;3.43;;;1.40;;
10293;SDS011;5192;50.328;7.610;2024-01-15T14:37:03;2.10;;;1.40;;
10293;SDS011;5192;50.328;7.610;2024-01-15T14:39:30;4.20;;;1.60;;
10293;SDS011;5192;50.328;7.610;2024-01-15T14:42:00;0.90;;;0.80;;
10293;SDS011;5192;50.328;7.610;2024-01-15T14:44:28;5.07;;;2.07;;
10293;SDS011;5192;50.328;7.610;2024-01-15T14:46:55;4.07;;;1.57;;
10293;SDS011;5192;50.328;7.610;2024-01-15T14:49:23;2.50;;;1.33;;
10293;SDS011;5192;50.328;7.610;2024-01-15T14:52:00;2.23;;;1.70;;
10293;SDS011;5192;50.328;7.610;2024-01-15T14:54:27;4.67;;;2.13;;
10293;SDS011;5192;50.328;7.610;2024-01-15T14:56:55;2.27;;;1.50;;
10293;SDS011;5192;50.328;7.610;2024-01-15T14:59:23;1.63;;;1.20;;